Time;durP1;ratioP1;P1;durP2;ratioP2;P2;SDS_P1;SDS_P2;PMS_P1;PMS_P2;Temp;Humidity;BMP_temperature;BMP_pressure;BME280_temperature;BME280_humidity;BME280_pressure;Samples;Min_cycle;Max_cycle;Signal;HPM_P1;HPM_P2
2022/05/08 00:00:03;;;;;;;5.18;2.08;;;10.70;99.90;;;;;;4185001;28;20040;-83
2022/05/08 00:02:09;;;;;;;6.30;2.33;;;10.60;99.90;;;;;;4193802;28;20199;-82
2022/05/08 00:04:11;;;;;;;2.33;2.13;;;10.50;99.90;;;;;;4177821;28;20045;-83
2022/05/08 00:06:14;;;;;;;2.60;2.25;;;10.60;99.90;;;;;;4194961;28;20041;-83
2022/05/08 00:08:16;;;;;;;2.22;2.00;;;10.70;99.90;;;;;;4193684;28;20059;-83
2022/05/08 00:10:18;;;;;;;4.55;1.77;;;10.70;99.90;;;;;;4177080;28;20059;-83
2022/05/08 00:12:20;;;;;;;2.38;2.28;;;10.60;99.90;;;;;;4193502;28;20045;-83
2022/05/08 00:14:22;;;;;;;5.90;2.53;;;10.60;99.90;;;;;;4194893;28;20046;-83
2022/05/08 00:16:24;;;;;;;2.22;2.13;;;10.50;99.90;;;;;;4182240;28;20076;-83
2022/05/08 00:18:26;;;;;;;3.50;2.70;;;10.50;99.90;;;;;;4187105;28;20052;-83
2022/05/08 00:20:28;;;;;;;6.55;2.22;;;10.40;99.90;;;;;;4178344;28;20057;-83
2022/05/08 00:22:31;;;;;;;4.35;3.25;;;10.40;99.90;;;;;;4169792;28;20044;-83
2022/05/08 00:24:35;;;;;;;3.08;2.95;;;10.40;99.90;;;;;;4195436;28;20047;-82
2022/05/08 00:26:37;;;;;;;2.20;2.10;;;10.40;99.90;;;;;;4194902;28;20045;-83
2022/05/08 00:28:40;;;;;;;2.90;2.70;;;10.40;99.90;;;;;;4176398;28;20044;-83
2022/05/08 00:30:42;;;;;;;9.02;2.70;;;10.40;99.90;;;;;;4176983;28;20049;-83
2022/05/08 00:32:45;;;;;;;2.35;2.25;;;10.50;99.90;;;;;;4192748;28;20056;-83
2022/05/08 00:34:48;;;;;;;3.60;1.83;;;10.50;99.90;;;;;;4194606;28;20041;-83
2022/05/08 00:36:50;;;;;;;1.90;1.77;;;10.60;99.90;;;;;;4194412;28;20500;-83
2022/05/08 00:38:54;;;;;;;7.00;2.22;;;10.70;99.90;;;;;;4181745;28;20060;-83
2022/05/08 00:40:57;;;;;;;4.65;1.50;;;10.70;99.90;;;;;;4183638;28;20107;-83
2022/05/08 00:43:26;;;;;;;2.97;2.03;;;10.70;99.90;;;;;;4176583;28;20053;-83
2022/05/08 00:45:28;;;;;;;4.63;2.25;;;10.70;99.90;;;;;;4179521;28;20079;-83
2022/05/08 00:47:30;;;;;;;2.00;1.90;;;10.70;99.90;;;;;;4181455;28;20130;-83
2022/05/08 00:49:33;;;;;;;7.32;2.63;;;10.50;99.90;;;;;;4194115;28;20049;-83
2022/05/08 00:51:36;;;;;;;3.08;2.15;;;10.50;99.90;;;;;;4180775;28;20051;-83
2022/05/08 00:53:39;;;;;;;;;;;10.40;99.90;;;;;;4179527;28;20059;-83
2022/05/08 00:55:41;;;;;;;4.30;2.72;;;10.20;99.90;;;;;;4194166;28;19920;-83
2022/05/08 00:57:44;;;;;;;2.72;2.40;;;10.10;99.90;;;;;;4192225;28;20053;-83
2022/05/08 00:59:47;;;;;;;3.75;2.47;;;10.00;99.90;;;;;;4193054;28;20106;-83
2022/05/08 01:01:49;;;;;;;3.35;3.03;;;10.00;99.90;;;;;;4159711;28;20057;-83
2022/05/08 01:03:51;;;;;;;3.42;2.78;;;9.90;99.90;;;;;;4193506;28;20060;-84
2022/05/08 01:05:54;;;;;;;2.55;2.35;;;10.00;99.90;;;;;;4193559;28;20070;-84
2022/05/08 01:07:56;;;;;;;5.15;2.50;;;10.00;99.90;;;;;;4177227;28;20052;-83
2022/05/08 01:10:00;;;;;;;4.22;3.25;;;10.00;99.90;;;;;;4194246;28;20052;-84
2022/05/08 01:12:03;;;;;;;3.08;2.67;;;10.10;99.90;;;;;;4182849;28;20079;-84
2022/05/08 01:14:05;;;;;;;3.45;2.15;;;10.10;99.90;;;;;;4190949;28;20098;-84
2022/05/08 01:16:09;;;;;;;2.53;2.33;;;10.10;99.90;;;;;;4194151;28;20606;-84
2022/05/08 01:18:17;;;;;;;2.75;2.55;;;10.10;99.90;;;;;;4176925;28;20080;-85
2022/05/08 01:20:20;;;;;;;3.88;2.33;;;10.10;99.90;;;;;;4194110;28;20083;-84
2022/05/08 01:22:22;;;;;;;2.35;2.20;;;10.00;99.90;;;;;;4192981;28;20060;-84
2022/05/08 01:24:24;;;;;;;5.10;3.05;;;10.00;99.90;;;;;;4176234;28;20556;-84
2022/05/08 01:26:26;;;;;;;2.47;2.28;;;10.00;99.90;;;;;;4192825;28;20044;-84
2022/05/08 01:28:29;;;;;;;2.88;2.67;;;10.10;99.90;;;;;;4194132;28;20052;-85
2022/05/08 01:30:32;;;;;;;3.13;2.92;;;10.10;99.90;;;;;;4176357;28;20440;-84
2022/05/08 01:32:34;;;;;;;4.43;1.83;;;10.10;99.90;;;;;;4193926;28;20067;-84
2022/05/08 01:34:36;;;;;;;2.58;2.30;;;10.00;99.90;;;;;;4193991;28;20048;-84
2022/05/08 01:36:40;;;;;;;2.47;2.28;;;10.00;99.90;;;;;;4193954;28;20052;-84
2022/05/08 01:38:42;;;;;;;2.50;2.35;;;10.00;99.90;;;;;;4193387;28;20056;-84
2022/05/08 01:40:44;;;;;;;5.90;2.85;;;9.90;99.90;;;;;;4192866;28;20095;-84
2022/05/08 01:42:46;;;;;;;5.88;2.17;;;10.00;99.90;;;;;;4192797;28;20059;-84
2022/05/08 01:44:51;;;;;;;3.40;2.83;;;10.00;99.90;;;;;;4176405;28;20819;-84
2022/05/08 01:48:21;;;;;;;3.17;2.65;;;10.00;99.90;;;;;;4159705;28;20045;-84
2022/05/08 01:49:16;;;;;;;2.72;2.53;;;9.90;99.90;;;;;;4176877;28;20407;-84
2022/05/08 01:51:18;;;;;;;2.53;2.42;;;10.00;99.90;;;;;;4176125;28;20044;-84
2022/05/08 01:53:22;;;;;;;5.38;2.97;;;9.90;99.90;;;;;;4159875;28;20413;-84
2022/05/08 01:55:24;;;;;;;4.22;3.90;;;9.90;99.90;;;;;;4177534;28;20484;-84
2022/05/08 01:57:26;;;;;;;3.40;2.47;;;9.80;99.90;;;;;;4175939;28;20052;-84
2022/05/08 01:59:28;;;;;;;3.25;2.33;;;9.70;99.90;;;;;;4159608;28;20073;-84
2022/05/08 02:01:30;;;;;;;5.78;2.38;;;9.60;99.90;;;;;;4177699;28;20056;-83
2022/05/08 02:03:33;;;;;;;4.20;2.75;;;9.50;99.90;;;;;;4176146;28;20060;-84
2022/05/08 02:05:35;;;;;;;2.75;2.47;;;9.50;99.90;;;;;;4177068;28;20079;-85
2022/05/08 02:07:37;;;;;;;4.10;2.33;;;9.50;99.90;;;;;;4177145;28;20052;-84
2022/05/08 02:09:39;;;;;;;4.55;3.72;;;9.40;99.90;;;;;;4159332;28;20050;-84
2022/05/08 02:11:41;;;;;;;3.75;2.70;;;9.20;99.90;;;;;;4167328;28;20053;-84
2022/05/08 02:13:43;;;;;;;2.90;2.70;;;9.30;99.90;;;;;;4160698;28;20077;-84
2022/05/08 02:15:45;;;;;;;2.85;2.72;;;9.30;99.90;;;;;;4159333;28;20053;-84
2022/05/08 02:17:47;;;;;;;3.42;3.15;;;9.30;99.90;;;;;;4152298;28;20131;-84
2022/05/08 02:19:50;;;;;;;3.17;3.08;;;9.30;99.90;;;;;;4165739;28;20065;-84
2022/05/08 02:21:52;;;;;;;5.93;3.25;;;9.40;99.90;;;;;;4149858;28;20049;-84
2022/05/08 02:23:54;;;;;;;2.17;2.08;;;9.40;99.90;;;;;;4163647;28;20052;-84
2022/05/08 02:25:56;;;;;;;2.13;2.13;;;9.40;99.90;;;;;;4173411;28;20116;-84
2022/05/08 02:28:00;;;;;;;4.55;2.25;;;9.40;99.90;;;;;;4179342;28;20044;-84
2022/05/08 02:30:05;;;;;;;5.07;1.83;;;9.40;99.90;;;;;;4180080;28;20548;-84
2022/05/08 02:32:08;;;;;;;2.65;2.20;;;9.40;99.90;;;;;;4169832;28;20136;-84
2022/05/08 02:34:11;;;;;;;1.95;1.85;;;9.40;99.90;;;;;;4180076;28;20053;-85
2022/05/08 02:36:13;;;;;;;2.45;2.20;;;9.40;99.90;;;;;;4146358;28;20740;-84
2022/05/08 02:38:15;;;;;;;2.53;2.42;;;9.40;99.90;;;;;;4163812;28;20549;-84
2022/05/08 02:40:19;;;;;;;3.03;2.17;;;9.40;99.90;;;;;;4162194;28;20052;-84
2022/05/08 02:42:22;;;;;;;3.50;3.30;;;9.30;99.90;;;;;;4178275;28;20083;-85
2022/05/08 02:44:24;;;;;;;2.92;2.72;;;9.20;99.90;;;;;;4165819;28;20136;-84
2022/05/08 02:46:26;;;;;;;2.53;2.35;;;9.20;99.90;;;;;;4179426;28;20072;-83
2022/05/08 02:48:29;;;;;;;3.50;2.97;;;9.20;99.90;;;;;;4182347;28;20041;-84
2022/05/08 02:50:32;;;;;;;2.53;2.35;;;9.20;99.90;;;;;;4178801;28;20052;-85
2022/05/08 02:52:35;;;;;;;2.40;2.30;;;9.10;99.90;;;;;;4164166;28;20072;-85
2022/05/08 02:54:37;;;;;;;6.65;3.55;;;9.20;99.90;;;;;;4175539;28;20059;-84
2022/05/08 02:59:01;;;;;;;3.55;1.98;;;9.20;99.90;;;;;;4181701;28;20059;-84
2022/05/08 03:01:07;;;;;;;6.00;2.97;;;9.20;99.90;;;;;;4180092;28;20045;-85
2022/05/08 03:03:10;;;;;;;3.03;2.83;;;9.20;99.90;;;;;;4178881;28;20077;-84
2022/05/08 03:05:12;;;;;;;4.65;3.42;;;9.20;99.90;;;;;;4163948;28;20066;-84
2022/05/08 03:07:14;;;;;;;3.08;2.60;;;9.20;99.90;;;;;;4173209;28;20041;-84
2022/05/08 03:09:17;;;;;;;4.10;3.42;;;9.10;99.90;;;;;;4162541;28;20055;-84
2022/05/08 03:11:29;;;;;;;3.60;2.78;;;9.10;99.90;;;;;;4149969;28;20771;-84
2022/05/08 03:13:35;;;;;;;5.85;2.63;;;9.20;99.90;;;;;;4179523;28;20170;-84
2022/05/08 03:15:38;;;;;;;4.90;3.20;;;9.20;99.90;;;;;;4178732;28;20060;-84
2022/05/08 03:17:40;;;;;;;6.38;2.80;;;9.10;99.90;;;;;;4178178;28;20480;-85
2022/05/08 03:19:42;;;;;;;2.10;1.92;;;9.10;99.90;;;;;;4170023;28;20041;-84
2022/05/08 03:21:50;;;;;;;2.97;2.78;;;9.10;99.90;;;;;;4178401;28;20061;-84
2022/05/08 03:23:53;;;;;;;2.40;2.30;;;9.00;99.90;;;;;;4179127;28;20041;-84
2022/05/08 03:25:55;;;;;;;3.40;2.83;;;9.00;99.90;;;;;;4173544;28;20055;-84
2022/05/08 03:27:57;;;;;;;2.75;2.08;;;9.00;99.90;;;;;;4162612;28;20076;-84
2022/05/08 03:29:59;;;;;;;2.53;2.42;;;9.00;99.90;;;;;;4158981;28;20460;-85
2022/05/08 03:32:03;;;;;;;2.50;2.40;;;9.10;99.90;;;;;;4179632;28;20049;-85
2022/05/08 03:34:05;;;;;;;2.65;2.55;;;9.10;99.90;;;;;;4179172;28;20055;-84
2022/05/08 03:36:10;;;;;;;3.03;2.53;;;9.10;99.90;;;;;;4179315;28;20059;-85
2022/05/08 03:38:12;;;;;;;3.35;3.05;;;9.20;99.90;;;;;;4177452;28;20045;-85
2022/05/08 03:40:14;;;;;;;4.47;4.18;;;9.40;99.90;;;;;;4161605;28;20136;-85
2022/05/08 03:42:17;;;;;;;3.22;2.58;;;9.40;99.90;;;;;;4162682;28;20456;-85
2022/05/08 03:44:19;;;;;;;3.13;2.88;;;9.60;99.90;;;;;;4172146;28;20147;-85
2022/05/08 03:46:21;;;;;;;3.03;2.80;;;9.60;99.90;;;;;;4194299;28;20051;-85
2022/05/08 03:48:23;;;;;;;2.80;2.63;;;9.50;99.90;;;;;;4194178;28;20052;-85
2022/05/08 03:50:26;;;;;;;2.55;2.45;;;9.40;99.90;;;;;;4187494;28;20052;-85
2022/05/08 03:52:28;;;;;;;;;;;9.30;99.90;;;;;;4193535;28;20049;-85
2022/05/08 03:54:30;;;;;;;2.53;2.53;;;9.30;99.90;;;;;;4178123;28;19929;-85
2022/05/08 03:56:32;;;;;;;3.70;2.35;;;9.30;99.90;;;;;;4195673;28;20056;-85
2022/05/08 03:58:34;;;;;;;2.40;2.38;;;9.30;99.90;;;;;;4183466;28;20041;-85
2022/05/08 04:00:36;;;;;;;3.75;2.92;;;9.20;99.90;;;;;;4181116;28;20045;-85
2022/05/08 04:02:39;;;;;;;2.80;2.60;;;9.10;99.90;;;;;;4194352;28;20528;-85
2022/05/08 04:04:41;;;;;;;;;;;9.10;99.90;;;;;;4177719;28;20162;-85
2022/05/08 04:06:42;;;;;;;2.72;2.63;;;9.20;99.90;;;;;;4177515;28;19925;-85
2022/05/08 04:08:44;;;;;;;12.02;2.95;;;9.10;99.90;;;;;;4195368;28;20508;-85
2022/05/08 04:10:46;;;;;;;3.08;2.92;;;9.10;99.90;;;;;;4186504;28;20053;-85
2022/05/08 04:12:48;;;;;;;5.85;2.50;;;9.00;99.90;;;;;;4161140;28;20049;-85
2022/05/08 04:14:50;;;;;;;2.38;2.25;;;9.10;99.90;;;;;;4192923;28;20063;-85
2022/05/08 04:16:52;;;;;;;3.28;2.85;;;9.00;99.90;;;;;;4195468;28;20055;-85
2022/05/08 04:18:54;;;;;;;5.75;3.72;;;8.90;99.90;;;;;;4178949;28;20443;-85
2022/05/08 04:20:56;;;;;;;3.17;2.63;;;8.90;99.90;;;;;;4190761;28;20669;-85
2022/05/08 04:25:19;;;;;;;5.93;2.70;;;8.80;99.90;;;;;;4194663;28;20067;-85
2022/05/08 04:27:21;;;;;;;8.15;3.25;;;8.90;99.90;;;;;;4193712;28;20055;-85
2022/05/08 04:29:24;;;;;;;2.78;2.67;;;8.90;99.90;;;;;;4177094;28;20052;-84
2022/05/08 04:31:26;;;;;;;3.08;2.80;;;9.00;99.90;;;;;;4194542;28;20044;-85
2022/05/08 04:33:29;;;;;;;2.47;2.47;;;8.90;99.90;;;;;;4194740;28;20041;-85
2022/05/08 04:35:30;;;;;;;4.35;3.22;;;8.90;99.90;;;;;;4194799;28;20122;-85
2022/05/08 04:37:33;;;;;;;2.20;2.20;;;8.90;99.90;;;;;;4177035;28;20053;-85
2022/05/08 04:39:36;;;;;;;6.93;2.90;;;8.90;99.90;;;;;;4193399;28;20037;-84
2022/05/08 04:41:39;;;;;;;5.70;2.92;;;8.90;99.90;;;;;;4177158;28;20057;-85
2022/05/08 04:43:41;;;;;;;8.02;3.72;;;8.90;99.90;;;;;;4176423;28;20053;-85
2022/05/08 04:45:43;;;;;;;4.20;2.72;;;8.90;99.90;;;;;;4183180;28;20732;-85
2022/05/08 04:47:45;;;;;;;3.92;3.67;;;8.80;99.90;;;;;;4193452;28;20123;-85
2022/05/08 04:49:48;;;;;;;2.80;2.60;;;8.90;99.90;;;;;;4194527;28;20489;-85
2022/05/08 04:51:50;;;;;;;3.80;3.20;;;8.80;99.90;;;;;;4193012;28;20056;-85
2022/05/08 04:53:52;;;;;;;3.45;3.25;;;8.80;99.90;;;;;;4193471;28;20564;-85
2022/05/08 04:55:54;;;;;;;3.30;3.10;;;8.80;99.90;;;;;;4189401;28;20052;-85
2022/05/08 04:57:56;;;;;;;3.63;3.42;;;8.80;99.90;;;;;;4193306;28;20057;-85
2022/05/08 04:59:58;;;;;;;3.10;3.00;;;8.90;99.90;;;;;;4194380;28;20048;-85
2022/05/08 05:02:02;;;;;;;3.30;2.67;;;9.10;99.90;;;;;;4176635;28;20053;-85
2022/05/08 05:04:04;;;;;;;4.85;4.50;;;9.10;99.90;;;;;;4177612;28;20057;-85
2022/05/08 05:06:07;;;;;;;3.80;3.70;;;9.20;99.90;;;;;;4176840;28;20049;-85
2022/05/08 05:08:09;;;;;;;3.67;3.33;;;9.40;99.90;;;;;;4163001;28;20049;-85
2022/05/08 05:10:12;;;;;;;3.95;3.70;;;9.50;99.90;;;;;;4160014;28;20107;-85
2022/05/08 05:12:14;;;;;;;3.15;3.05;;;9.50;99.90;;;;;;4189626;28;20051;-85
2022/05/08 05:14:16;;;;;;;3.53;3.20;;;9.60;99.90;;;;;;4193739;28;20044;-85
2022/05/08 05:16:18;;;;;;;3.70;3.50;;;9.60;99.90;;;;;;4193848;28;20057;-85
2022/05/08 05:18:22;;;;;;;3.47;3.25;;;9.70;99.90;;;;;;4175834;28;20056;-84
2022/05/08 05:20:24;;;;;;;2.80;2.70;;;9.70;99.90;;;;;;4194031;28;20058;-84
2022/05/08 05:22:26;;;;;;;3.33;3.17;;;9.70;99.90;;;;;;4162031;28;20053;-84
2022/05/08 05:24:29;;;;;;;4.25;3.20;;;9.70;99.90;;;;;;4169582;28;20501;-84
2022/05/08 05:26:32;;;;;;;3.85;3.65;;;9.80;99.90;;;;;;4177039;28;20061;-84
2022/05/08 05:28:34;;;;;;;3.08;2.97;;;9.80;99.90;;;;;;4193918;28;20048;-85
2022/05/08 05:30:37;;;;;;;3.45;3.15;;;9.90;99.90;;;;;;4185841;28;20677;-85
2022/05/08 05:32:41;;;;;;;3.60;3.50;;;9.90;99.90;;;;;;4160014;28;20135;-85
2022/05/08 05:34:44;;;;;;;3.70;3.22;;;9.90;99.90;;;;;;4193098;28;20539;-85
2022/05/08 05:36:48;;;;;;;4.75;4.45;;;10.00;99.90;;;;;;4193974;28;20045;-85
2022/05/08 05:38:50;;;;;;;3.80;3.50;;;9.90;99.90;;;;;;4193745;28;20496;-85
2022/05/08 05:40:52;;;;;;;4.00;3.90;;;9.90;99.90;;;;;;4193940;28;20063;-85
2022/05/08 05:42:53;;;;;;;3.80;3.42;;;9.90;99.90;;;;;;4176184;28;20056;-84
2022/05/08 05:44:55;;;;;;;4.07;3.88;;;10.00;99.90;;;;;;4176887;28;20114;-85
2022/05/08 05:49:19;;;;;;;5.18;4.88;;;10.00;99.90;;;;;;4189268;28;20049;-85
2022/05/08 05:51:21;;;;;;;6.68;4.13;;;10.00;99.90;;;;;;4177756;28;20052;-85
2022/05/08 05:53:24;;;;;;;4.88;4.50;;;10.20;99.90;;;;;;4194289;28;20454;-85
2022/05/08 05:55:26;;;;;;;4.75;4.57;;;10.40;99.90;;;;;;4199412;28;20496;-84
2022/05/08 05:57:28;;;;;;;5.68;5.25;;;10.60;99.90;;;;;;4199163;28;20048;-84
2022/05/08 05:59:30;;;;;;;6.68;6.05;;;10.80;99.90;;;;;;4181330;28;20094;-85
2022/05/08 06:01:40;;;;;;;3.97;3.67;;;11.00;99.90;;;;;;4182559;28;20057;-85
2022/05/08 06:03:43;;;;;;;4.07;3.95;;;11.20;99.90;;;;;;4199159;28;20107;-85
2022/05/08 06:05:46;;;;;;;4.90;3.03;;;11.30;99.90;;;;;;4190600;28;20049;-85
2022/05/08 06:07:48;;;;;;;3.83;3.72;;;11.30;99.90;;;;;;4189671;28;20671;-85
2022/05/08 06:09:51;;;;;;;7.15;4.07;;;11.40;99.90;;;;;;4198166;28;20053;-85
2022/05/08 06:11:53;;;;;;;;;;;11.50;99.90;;;;;;4199428;28;20074;-85
2022/05/08 06:13:56;;;;;;;3.78;3.55;;;11.70;99.90;;;;;;4199008;28;20367;-85
2022/05/08 06:15:58;;;;;;;5.13;4.53;;;11.80;99.90;;;;;;4199137;28;20044;-85
2022/05/08 06:18:00;;;;;;;4.03;3.53;;;11.90;99.90;;;;;;4198689;28;20450;-85
2022/05/08 06:20:03;;;;;;;4.78;4.05;;;12.40;99.90;;;;;;4199061;28;20083;-85
2022/05/08 06:22:06;;;;;;;3.80;2.80;;;12.40;99.90;;;;;;4197637;28;20123;-85
2022/05/08 06:24:09;;;;;;;3.67;2.70;;;12.50;99.90;;;;;;4198464;28;20041;-85
2022/05/08 06:26:12;;;;;;;6.90;3.15;;;12.60;99.90;;;;;;4198078;28;20056;-85
2022/05/08 06:28:19;;;;;;;3.80;3.58;;;12.70;99.90;;;;;;4192037;28;20067;-85
2022/05/08 06:30:22;;;;;;;6.93;3.90;;;12.70;99.90;;;;;;4197978;28;20094;-85
2022/05/08 06:32:25;;;;;;;3.65;3.40;;;12.80;99.90;;;;;;4181651;28;20068;-85
2022/05/08 06:34:27;;;;;;;3.30;3.10;;;12.90;99.90;;;;;;4198892;28;20040;-85
2022/05/08 06:36:29;;;;;;;3.78;3.63;;;13.10;99.90;;;;;;4181414;28;20501;-85
2022/05/08 06:38:31;;;;;;;3.70;3.50;;;13.20;99.90;;;;;;4181444;28;20501;-85
2022/05/08 06:40:33;;;;;;;3.78;3.58;;;13.20;99.90;;;;;;4180344;28;20140;-85
2022/05/08 06:42:35;;;;;;;3.15;2.80;;;13.30;99.90;;;;;;4192829;28;20565;-85
2022/05/08 06:44:37;;;;;;;4.15;3.72;;;13.40;99.90;;;;;;4198724;28;20068;-85
2022/05/08 06:46:39;;;;;;;2.85;2.63;;;13.60;99.90;;;;;;4198334;28;20049;-85
2022/05/08 06:48:42;;;;;;;4.88;2.47;;;13.60;99.90;;;;;;4199083;28;20053;-84
2022/05/08 06:50:44;;;;;;;4.00;2.65;;;13.70;99.90;;;;;;4196730;28;20036;-85
2022/05/08 06:52:46;;;;;;;2.67;2.47;;;13.80;99.90;;;;;;4181320;28;20048;-85
2022/05/08 06:54:48;;;;;;;3.13;3.03;;;13.80;99.90;;;;;;4181294;28;20115;-86
2022/05/08 06:56:51;;;;;;;3.30;3.05;;;13.90;99.90;;;;;;4181363;28;20517;-85
2022/05/08 07:03:36;;;;;;;2.20;2.00;;;14.70;99.90;;;;;;4192600;28;20098;-85
2022/05/08 07:05:45;;;;;;;2.83;2.55;;;15.30;99.90;;;;;;4193003;28;20060;-85
2022/05/08 07:07:47;;;;;;;2.95;2.25;;;15.30;99.90;;;;;;4177860;28;20096;-85
2022/05/08 07:09:51;;;;;;;2.13;2.03;;;15.10;99.90;;;;;;4196137;28;20040;-85
2022/05/08 07:11:53;;;;;;;2.33;1.77;;;15.10;99.90;;;;;;4194301;28;20048;-85
2022/05/08 07:14:01;;;;;;;2.70;2.35;;;15.50;99.90;;;;;;4195870;28;20049;-85
2022/05/08 07:16:03;;;;;;;;;;;15.90;99.90;;;;;;4193428;28;20045;-85
2022/05/08 07:18:05;;;;;;;1.20;1.10;;;16.00;99.90;;;;;;4179110;28;19939;-86
2022/05/08 07:20:09;;;;;;;1.95;1.85;;;15.90;99.90;;;;;;4181916;28;20048;-87
2022/05/08 07:22:11;;;;;;;2.25;1.70;;;15.80;99.90;;;;;;4180879;28;20132;-86
2022/05/08 07:24:16;;;;;;;1.90;1.77;;;15.70;99.90;;;;;;4195894;28;20056;-85
2022/05/08 07:26:18;;;;;;;1.80;1.70;;;15.80;99.90;;;;;;4179542;28;20053;-85
2022/05/08 07:28:20;;;;;;;2.40;2.30;;;16.10;99.90;;;;;;4198747;28;20136;-87
2022/05/08 07:30:23;;;;;;;2.17;1.67;;;16.10;99.90;;;;;;4180412;28;20106;-85
2022/05/08 07:32:26;;;;;;;2.22;1.85;;;16.00;99.90;;;;;;4197575;28;20094;-85
2022/05/08 07:36:48;;;;;;;3.58;2.00;;;15.90;99.90;;;;;;4196819;28;20049;-86
2022/05/08 07:38:50;;;;;;;1.33;1.33;;;16.00;99.90;;;;;;4192242;28;20064;-86
2022/05/08 07:40:52;;;;;;;1.67;1.58;;;16.20;99.90;;;;;;4194039;28;20075;-86
2022/05/08 07:42:54;;;;;;;2.42;1.90;;;16.20;99.90;;;;;;4176564;28;20049;-86
2022/05/08 07:44:56;;;;;;;2.25;1.42;;;16.10;99.90;;;;;;4189733;28;20452;-86
2022/05/08 07:47:00;;;;;;;2.05;1.73;;;16.20;99.90;;;;;;4190095;28;20043;-86
2022/05/08 07:49:02;;;;;;;2.13;2.03;;;16.10;99.90;;;;;;4171099;28;20048;-86
2022/05/08 07:51:05;;;;;;;2.58;2.08;;;16.20;99.90;;;;;;4190694;28;20039;-85
2022/05/08 07:53:07;;;;;;;1.50;1.50;;;16.00;99.90;;;;;;4184293;28;20129;-86
2022/05/08 07:55:10;;;;;;;1.80;1.80;;;15.90;99.90;;;;;;4192484;28;20041;-86
2022/05/08 07:57:13;;;;;;;2.03;1.77;;;15.90;99.90;;;;;;4195429;28;20457;-86
2022/05/08 07:59:15;;;;;;;2.63;1.60;;;16.00;99.90;;;;;;4194146;28;20377;-86
2022/05/08 08:01:17;;;;;;;1.65;1.55;;;16.00;99.90;;;;;;4194190;28;20135;-86
2022/05/08 08:03:23;;;;;;;3.00;2.22;;;16.10;99.90;;;;;;4194168;28;20074;-86
2022/05/08 08:05:25;;;;;;;2.17;1.90;;;16.10;99.90;;;;;;4195791;28;20051;-86
2022/05/08 08:07:28;;;;;;;1.48;1.40;;;16.30;99.90;;;;;;4174323;28;20048;-86
2022/05/08 08:09:30;;;;;;;2.47;1.67;;;16.20;99.90;;;;;;4164171;28;20671;-86
2022/05/08 08:11:32;;;;;;;2.25;1.65;;;16.30;99.90;;;;;;4193994;28;20042;-85
2022/05/08 08:13:36;;;;;;;1.48;1.48;;;16.50;99.90;;;;;;4176351;28;20041;-86
2022/05/08 08:15:39;;;;;;;7.25;1.60;;;16.60;99.90;;;;;;4191144;28;20047;-86
2022/05/08 08:17:41;;;;;;;1.73;1.73;;;16.60;99.90;;;;;;4194630;28;20047;-87
2022/05/08 08:19:45;;;;;;;10.10;9.68;;;16.60;99.90;;;;;;4195043;28;20131;-86
2022/05/08 08:21:48;;;;;;;2.40;2.30;;;16.60;99.90;;;;;;4177646;28;20057;-87
2022/05/08 08:23:50;;;;;;;1.70;1.45;;;16.60;99.90;;;;;;4195056;28;20072;-87
2022/05/08 08:25:54;;;;;;;1.63;1.60;;;16.60;99.90;;;;;;4193714;28;20048;-87
2022/05/08 08:27:57;;;;;;;1.40;1.40;;;16.60;99.90;;;;;;4187386;28;20446;-86
2022/05/08 08:29:59;;;;;;;8.35;3.90;;;16.60;99.90;;;;;;4194355;28;20053;-86
2022/05/08 08:32:02;;;;;;;1.67;1.58;;;16.80;99.90;;;;;;4193971;28;20051;-87
2022/05/08 08:34:04;;;;;;;;;;;16.70;99.90;;;;;;4178555;28;20068;-88
2022/05/08 08:36:08;;;;;;;2.35;1.98;;;16.90;99.90;;;;;;4177345;28;19920;-87
2022/05/08 08:38:11;;;;;;;1.73;1.73;;;17.10;99.90;;;;;;4180182;28;20143;-87
2022/05/08 08:40:14;;;;;;;1.30;1.30;;;17.20;99.90;;;;;;4177105;28;20084;-87
2022/05/08 08:42:22;;;;;;;2.15;1.60;;;17.30;99.90;;;;;;4187455;28;20428;-87
2022/05/08 08:49:23;;;;;;;1.53;1.20;;;17.20;99.90;;;;;;4176426;28;20049;-86
2022/05/08 08:51:25;;;;;;;2.60;1.48;;;17.10;99.90;;;;;;4150732;28;20296;-87
2022/05/08 08:53:30;;;;;;;1.27;1.27;;;17.00;99.90;;;;;;4177033;28;20424;-87
2022/05/08 08:55:33;;;;;;;1.77;1.77;;;17.00;99.90;;;;;;4177901;28;20041;-86
2022/05/08 08:57:36;;;;;;;2.13;1.20;;;17.10;99.90;;;;;;4172351;28;20124;-87
2022/05/08 08:59:39;;;;;;;1.67;1.30;;;17.20;99.90;;;;;;4178405;28;20127;-87
2022/05/08 09:01:44;;;;;;;1.67;1.33;;;17.20;99.90;;;;;;4176896;28;20086;-87
2022/05/08 09:03:46;;;;;;;2.13;1.48;;;17.20;99.90;;;;;;4178269;28;20060;-87
2022/05/08 09:05:48;;;;;;;1.35;1.10;;;17.30;99.90;;;;;;4177050;28;20497;-87
2022/05/08 09:07:56;;;;;;;;;;;17.40;99.90;;;;;;4177416;28;20053;-87
2022/05/08 09:10:21;;;;;;;1.67;1.02;;;17.40;99.90;;;;;;4176260;28;19966;-87
2022/05/08 09:12:23;;;;;;;1.70;1.10;;;17.40;99.90;;;;;;4171975;28;20083;-86
2022/05/08 09:14:31;;;;;;;1.13;1.10;;;17.40;99.90;;;;;;4159561;28;20448;-87
2022/05/08 09:16:52;;;;;;;1.02;1.02;;;17.30;99.90;;;;;;4176814;28;20041;-88
2022/05/08 09:18:54;;;;;;;2.05;1.52;;;17.40;99.90;;;;;;4159664;28;20513;-87
2022/05/08 09:21:54;;;;;;;1.08;1.08;;;17.40;99.90;;;;;;4172456;28;20425;-87
2022/05/08 09:23:23;;;;;;;1.40;1.30;;;17.60;99.90;;;;;;4177515;28;20482;-86
2022/05/08 09:25:54;;;;;;;1.13;1.10;;;17.80;99.90;;;;;;4160082;28;20064;-87
2022/05/08 09:28:07;;;;;;;1.20;1.20;;;18.00;99.90;;;;;;4176065;28;20036;-86
2022/05/08 09:30:10;;;;;;;1.10;1.10;;;18.10;99.90;;;;;;4176535;28;20116;-87
2022/05/08 09:32:35;;;;;;;2.05;1.00;;;18.10;99.90;;;;;;4175435;28;20408;-87
2022/05/08 09:34:58;;;;;;;0.98;0.98;;;18.20;99.90;;;;;;4176610;28;20465;-87
2022/05/08 09:37:07;;;;;;;1.00;1.00;;;18.40;99.90;;;;;;4155528;28;20493;-86
2022/05/08 09:39:09;;;;;;;1.10;1.10;;;18.40;99.90;;;;;;4159283;28;20050;-86
2022/05/08 09:41:12;;;;;;;;;;;18.30;99.90;;;;;;4158574;28;20054;-86
2022/05/08 09:43:30;;;;;;;;;;;18.30;99.90;;;;;;4157464;28;19935;-86
2022/05/08 09:45:32;;;;;;;1.00;1.00;;;18.40;99.90;;;;;;4194083;28;19924;-86
2022/05/08 09:47:41;;;;;;;0.98;0.98;;;18.50;99.90;;;;;;4174841;28;20057;-85
2022/05/08 09:49:46;;;;;;;1.00;1.00;;;18.40;99.90;;;;;;4192986;28;20049;-86
2022/05/08 09:51:49;;;;;;;1.25;1.05;;;18.30;99.90;;;;;;4192022;28;20053;-86
2022/05/08 09:53:52;;;;;;;1.23;1.23;;;18.30;99.90;;;;;;4191289;28;20044;-85
2022/05/08 09:55:56;;;;;;;0.90;0.90;;;18.40;99.90;;;;;;4176318;28;20057;-86
2022/05/08 09:58:00;;;;;;;1.85;0.90;;;18.40;99.90;;;;;;4173496;28;20670;-86
2022/05/08 10:00:09;;;;;;;1.05;1.05;;;18.30;99.90;;;;;;4194467;28;20102;-86
2022/05/08 10:02:14;;;;;;;1.15;1.00;;;18.20;99.90;;;;;;4193193;28;20052;-87
2022/05/08 10:04:17;;;;;;;0.90;0.90;;;18.20;99.90;;;;;;4192986;28;20067;-87
2022/05/08 10:06:21;;;;;;;2.10;1.25;;;18.20;99.90;;;;;;4192642;28;20576;-87
2022/05/08 10:08:37;;;;;;;1.88;1.35;;;18.10;99.90;;;;;;4185063;28;20047;-86
2022/05/08 10:15:35;;;;;;;2.22;1.00;;;18.50;99.90;;;;;;4193839;28;20056;-86
2022/05/08 10:17:37;;;;;;;1.00;1.00;;;18.40;99.90;;;;;;4193811;28;20056;-86
2022/05/08 10:19:40;;;;;;;2.65;1.00;;;18.40;99.90;;;;;;4193009;28;20048;-85
2022/05/08 10:22:00;;;;;;;1.38;1.10;;;18.30;99.90;;;;;;4193339;28;20056;-86
2022/05/08 10:24:28;;;;;;;2.75;1.10;;;18.30;99.90;;;;;;4186638;28;20416;-85
2022/05/08 10:26:30;;;;;;;1.95;1.00;;;18.20;99.90;;;;;;4175836;28;20548;-86
2022/05/08 10:28:52;;;;;;;2.15;1.00;;;18.20;99.90;;;;;;4193649;28;20566;-86
2022/05/08 10:31:43;;;;;;;1.30;0.90;;;18.20;99.90;;;;;;4193507;28;20499;-86
2022/05/08 10:34:07;;;;;;;1.85;1.00;;;18.30;99.90;;;;;;4191684;28;20056;-86
2022/05/08 10:36:11;;;;;;;2.45;1.00;;;18.50;99.90;;;;;;4195595;28;20052;-86
2022/05/08 10:38:21;;;;;;;1.05;0.80;;;18.50;99.90;;;;;;4188932;28;20048;-86
2022/05/08 10:40:24;;;;;;;1.95;1.20;;;18.50;99.90;;;;;;4179241;28;20088;-86
2022/05/08 10:42:38;;;;;;;0.90;0.90;;;18.50;99.90;;;;;;4196656;28;20052;-86
2022/05/08 10:44:42;;;;;;;1.10;1.00;;;18.50;99.90;;;;;;4196247;28;20067;-86
2022/05/08 10:46:45;;;;;;;1.73;0.90;;;18.40;99.90;;;;;;4190953;28;20288;-86
2022/05/08 10:48:54;;;;;;;2.25;0.98;;;18.30;99.90;;;;;;4195242;28;20110;-86
2022/05/08 10:51:01;;;;;;;1.50;1.00;;;18.30;99.90;;;;;;4194283;28;20135;-86
2022/05/08 10:53:04;;;;;;;2.10;1.00;;;18.50;99.90;;;;;;4196716;28;20048;-86
2022/05/08 10:55:08;;;;;;;2.10;1.42;;;18.80;99.90;;;;;;4178836;28;20049;-86
2022/05/08 10:57:10;;;;;;;0.90;0.90;;;18.90;99.90;;;;;;4179879;28;20051;-86
2022/05/08 10:59:12;;;;;;;1.40;0.90;;;18.80;99.90;;;;;;4187375;28;20049;-85
2022/05/08 11:01:15;;;;;;;1.02;1.02;;;18.90;99.90;;;;;;4195087;28;20041;-84
2022/05/08 11:03:21;;;;;;;4.38;1.00;;;18.90;99.90;;;;;;4184792;28;20432;-85
2022/05/08 11:05:36;;;;;;;1.40;0.90;;;19.00;99.90;;;;;;4169012;28;20065;-86
2022/05/08 11:07:40;;;;;;;1.00;1.00;;;19.00;99.90;;;;;;4190145;28;20091;-85
2022/05/08 11:09:42;;;;;;;0.90;0.90;;;18.80;99.90;;;;;;4161582;28;20386;-86
2022/05/08 11:11:44;;;;;;;0.88;0.88;;;18.60;99.90;;;;;;4187547;28;20052;-85
2022/05/08 11:13:49;;;;;;;1.30;0.90;;;18.60;99.90;;;;;;4195179;28;20056;-85